createdAt,value
2022-07-28T00:00:08.401Z,21.06
2022-07-28T00:01:08.099Z,21.00
2022-07-28T00:03:08.143Z,20.97
2022-07-28T00:04:08.115Z,20.95
2022-07-28T00:05:08.116Z,20.94
2022-07-28T00:06:12.592Z,20.93
2022-07-28T00:07:08.133Z,20.95
2022-07-28T00:08:08.096Z,21.02
2022-07-28T00:09:08.117Z,21.09
2022-07-28T00:10:08.134Z,21.08
2022-07-28T00:11:08.128Z,21.09
2022-07-28T00:12:08.145Z,21.07
2022-07-28T00:13:08.141Z,21.06
2022-07-28T00:14:08.138Z,21.07
2022-07-28T00:15:08.129Z,21.08
2022-07-28T00:16:08.269Z,21.12
2022-07-28T00:18:08.167Z,21.17
2022-07-28T00:19:08.147Z,21.14
2022-07-28T00:21:08.164Z,21.06
2022-07-28T00:22:08.151Z,21.05
2022-07-28T00:23:08.199Z,21.07
2022-07-28T00:25:08.168Z,21.10
2022-07-28T00:26:08.169Z,21.14
2022-07-28T00:27:08.164Z,21.17
2022-07-28T00:28:08.201Z,21.23
2022-07-28T00:29:08.169Z,21.15
2022-07-28T00:30:08.162Z,21.16
2022-07-28T00:31:09.936Z,21.19
2022-07-28T00:32:08.244Z,21.22
2022-07-28T00:33:08.189Z,21.27
2022-07-28T00:34:08.191Z,21.32
2022-07-28T00:35:08.860Z,21.37
2022-07-28T00:36:10.329Z,21.35
2022-07-28T00:37:08.193Z,21.33
2022-07-28T00:38:08.198Z,21.29
2022-07-28T00:40:08.229Z,21.26
2022-07-28T00:41:08.196Z,21.21
2022-07-28T00:42:08.193Z,21.19
2022-07-28T00:43:12.787Z,21.15
2022-07-28T00:44:08.215Z,21.14
2022-07-28T00:45:08.216Z,21.10
2022-07-28T00:46:08.284Z,21.02
2022-07-28T00:47:08.216Z,20.96
2022-07-28T00:48:08.215Z,20.88
2022-07-28T00:49:08.305Z,20.86
2022-07-28T00:50:08.222Z,20.83
2022-07-28T00:51:08.277Z,20.82
2022-07-28T00:52:08.238Z,20.73
2022-07-28T00:53:08.845Z,20.70
2022-07-28T00:54:08.236Z,20.66
2022-07-28T00:55:08.244Z,20.57
2022-07-28T00:57:08.260Z,20.55
2022-07-28T00:59:08.249Z,20.51
2022-07-28T01:01:08.239Z,20.54
2022-07-28T01:02:08.381Z,20.55
2022-07-28T01:03:08.316Z,20.58
2022-07-28T01:04:08.291Z,20.62
2022-07-28T01:05:08.269Z,20.66
2022-07-28T01:06:08.273Z,20.68
2022-07-28T01:07:08.261Z,20.71
2022-07-28T01:08:08.269Z,20.74
2022-07-28T01:09:08.271Z,20.75
2022-07-28T01:10:08.269Z,20.74
2022-07-28T01:11:08.297Z,20.69
2022-07-28T01:13:08.285Z,20.70
2022-07-28T01:14:08.292Z,20.61
2022-07-28T01:15:08.301Z,20.56
2022-07-28T01:16:08.293Z,20.55
2022-07-28T01:17:08.285Z,20.51
2022-07-28T01:18:08.314Z,20.53
2022-07-28T01:19:08.313Z,20.54
2022-07-28T01:20:13.001Z,20.56
2022-07-28T01:21:08.302Z,20.58
2022-07-28T01:23:08.310Z,20.57
2022-07-28T01:24:08.313Z,20.54
2022-07-28T01:25:08.316Z,20.53
2022-07-28T01:26:08.316Z,20.50
2022-07-28T01:27:08.346Z,20.52
2022-07-28T01:28:08.329Z,20.55
2022-07-28T01:29:08.335Z,20.59
2022-07-28T01:30:08.348Z,20.63
2022-07-28T01:31:08.381Z,20.66
2022-07-28T01:32:08.308Z,20.65
2022-07-28T01:33:08.337Z,20.64
2022-07-28T01:34:08.324Z,20.62
2022-07-28T01:35:08.353Z,20.57
2022-07-28T01:36:08.353Z,20.52
2022-07-28T01:37:08.358Z,20.46
2022-07-28T01:38:08.352Z,20.36
2022-07-28T01:39:08.359Z,20.29
2022-07-28T01:40:08.344Z,20.25
2022-07-28T01:41:08.362Z,20.26
2022-07-28T01:42:08.340Z,20.22
2022-07-28T01:43:08.430Z,20.19
2022-07-28T01:44:08.365Z,20.18
2022-07-28T01:45:08.359Z,20.19
2022-07-28T01:46:08.452Z,20.18
2022-07-28T01:47:08.369Z,20.20
2022-07-28T01:48:08.368Z,20.23
2022-07-28T01:51:08.370Z,20.20
2022-07-28T01:52:08.398Z,20.19
2022-07-28T01:53:08.369Z,20.17
2022-07-28T01:54:08.380Z,20.16
2022-07-28T01:56:08.409Z,20.13
2022-07-28T01:57:13.214Z,20.08
2022-07-28T01:58:08.420Z,20.03
2022-07-28T02:02:08.439Z,20.04
2022-07-28T02:03:08.397Z,20.06
2022-07-28T02:04:08.415Z,20.09
2022-07-28T02:05:08.416Z,20.10
2022-07-28T02:06:08.415Z,20.12
2022-07-28T02:07:08.414Z,20.13
2022-07-28T02:08:08.405Z,20.15
2022-07-28T02:09:08.417Z,20.13
2022-07-28T02:10:08.428Z,20.14
2022-07-28T02:11:09.818Z,20.12
2022-07-28T02:12:08.433Z,20.02
2022-07-28T02:13:08.443Z,19.96
2022-07-28T02:14:08.460Z,19.91
2022-07-28T02:15:08.429Z,19.87
2022-07-28T02:16:08.529Z,19.83
2022-07-28T02:17:08.466Z,19.76
2022-07-28T02:18:08.439Z,19.67
2022-07-28T02:19:08.450Z,19.61
2022-07-28T02:20:08.444Z,19.57
2022-07-28T02:21:08.453Z,19.54
2022-07-28T02:22:08.459Z,19.53
2022-07-28T02:23:08.483Z,19.54
2022-07-28T02:24:08.474Z,19.58
2022-07-28T02:25:08.458Z,19.57
2022-07-28T02:26:08.471Z,19.58
2022-07-28T02:27:08.459Z,19.60
2022-07-28T02:28:08.469Z,19.63
2022-07-28T02:29:12.211Z,19.65
2022-07-28T02:30:08.485Z,19.66
2022-07-28T02:31:08.554Z,19.67
2022-07-28T02:34:13.659Z,19.68
2022-07-28T02:35:09.340Z,19.70
2022-07-28T02:36:08.498Z,19.72
2022-07-28T02:37:08.505Z,19.74
2022-07-28T02:38:08.505Z,19.76
2022-07-28T02:39:08.515Z,19.77
2022-07-28T02:40:08.517Z,19.76
2022-07-28T02:41:08.508Z,19.72
2022-07-28T02:42:08.519Z,19.67
2022-07-28T02:43:08.518Z,19.62
2022-07-28T02:44:08.530Z,19.58
2022-07-28T02:45:08.522Z,19.51
2022-07-28T02:46:08.571Z,19.45
2022-07-28T02:47:08.528Z,19.43
2022-07-28T02:48:08.535Z,19.42
2022-07-28T02:49:08.608Z,19.43
2022-07-28T02:50:08.537Z,19.42
2022-07-28T02:51:08.537Z,19.44
2022-07-28T02:52:08.535Z,19.41
2022-07-28T02:53:14.791Z,19.36
2022-07-28T02:54:08.547Z,19.32
2022-07-28T02:55:08.556Z,19.30
2022-07-28T02:56:08.555Z,19.26
2022-07-28T02:57:08.572Z,19.24
2022-07-28T02:58:08.578Z,19.21
2022-07-28T03:00:08.547Z,19.19
2022-07-28T03:01:08.617Z,19.18
2022-07-28T03:02:08.564Z,19.15
2022-07-28T03:03:08.577Z,19.12
2022-07-28T03:04:08.553Z,19.08
2022-07-28T03:05:11.325Z,19.11
2022-07-28T03:06:08.580Z,19.15
2022-07-28T03:07:08.569Z,19.18
2022-07-28T03:09:08.580Z,19.20
2022-07-28T03:10:08.597Z,19.25
2022-07-28T03:11:13.626Z,19.26
2022-07-28T03:13:08.574Z,19.22
2022-07-28T03:14:08.589Z,19.20
2022-07-28T03:15:08.581Z,19.16
2022-07-28T03:16:08.585Z,19.12
2022-07-28T03:17:08.656Z,19.08
2022-07-28T03:18:08.617Z,19.09
2022-07-28T03:19:08.620Z,19.07
2022-07-28T03:20:08.615Z,19.03
2022-07-28T03:22:10.384Z,19.02
2022-07-28T03:23:08.615Z,18.99
2022-07-28T03:24:08.637Z,18.97
2022-07-28T03:26:08.624Z,18.98
2022-07-28T03:27:08.628Z,18.95
2022-07-28T03:28:08.626Z,18.96
2022-07-28T03:29:08.655Z,18.92
2022-07-28T03:30:08.640Z,18.93
2022-07-28T03:31:08.681Z,18.95
2022-07-28T03:32:08.639Z,18.94
2022-07-28T03:33:08.642Z,18.93
2022-07-28T03:35:08.656Z,18.92
2022-07-28T03:36:08.700Z,18.91
2022-07-28T03:37:08.642Z,18.89
2022-07-28T03:38:08.659Z,18.88
2022-07-28T03:39:08.694Z,18.87
2022-07-28T03:40:08.669Z,18.83
2022-07-28T03:41:08.661Z,18.81
2022-07-28T03:42:08.662Z,18.78
2022-07-28T03:43:08.665Z,18.77
2022-07-28T03:44:08.665Z,18.70
2022-07-28T03:45:08.894Z,18.66
2022-07-28T03:46:12.843Z,18.54
2022-07-28T03:48:08.682Z,18.53
2022-07-28T03:49:08.732Z,18.55
2022-07-28T03:50:08.692Z,18.57
2022-07-28T03:51:08.674Z,18.58
2022-07-28T03:52:08.674Z,18.62
2022-07-28T03:53:08.699Z,18.65
2022-07-28T03:54:08.680Z,18.62
2022-07-28T03:55:08.690Z,18.61
2022-07-28T03:57:08.713Z,18.60
2022-07-28T03:58:08.706Z,18.59
2022-07-28T03:59:08.730Z,18.60
2022-07-28T04:00:09.883Z,18.58
2022-07-28T04:02:08.752Z,18.57
2022-07-28T04:03:22.009Z,18.55
2022-07-28T04:04:08.734Z,18.57
2022-07-28T04:05:08.731Z,18.53
2022-07-28T04:06:08.745Z,18.56
2022-07-28T04:07:08.745Z,18.59
2022-07-28T04:08:08.742Z,18.55
2022-07-28T04:09:08.729Z,18.53
2022-07-28T04:10:08.765Z,18.47
2022-07-28T04:11:08.725Z,18.48
2022-07-28T04:12:08.723Z,18.49
2022-07-28T04:13:08.729Z,18.54
2022-07-28T04:14:13.200Z,18.53
2022-07-28T04:15:08.735Z,18.57
2022-07-28T04:17:08.851Z,18.58
2022-07-28T04:18:08.751Z,18.60
2022-07-28T04:20:08.754Z,18.58
2022-07-28T04:21:08.753Z,18.63
2022-07-28T04:22:09.086Z,18.68
2022-07-28T04:23:08.770Z,18.72
2022-07-28T04:24:08.761Z,18.77
2022-07-28T04:25:08.789Z,18.75
2022-07-28T04:26:08.793Z,18.76
2022-07-28T04:27:08.774Z,18.74
2022-07-28T04:28:08.792Z,18.71
2022-07-28T04:29:08.781Z,18.66
2022-07-28T04:30:08.803Z,18.61
2022-07-28T04:32:08.810Z,18.55
2022-07-28T04:34:08.779Z,18.54
2022-07-28T04:35:08.790Z,18.53
2022-07-28T04:36:08.792Z,18.55
2022-07-28T04:37:08.813Z,18.57
2022-07-28T04:38:08.808Z,18.58
2022-07-28T04:39:08.799Z,18.61
2022-07-28T04:40:08.809Z,18.66
2022-07-28T04:41:08.813Z,18.67
2022-07-28T04:42:08.816Z,18.74
2022-07-28T04:43:08.821Z,18.78
2022-07-28T04:44:08.809Z,18.82
2022-07-28T04:45:08.863Z,18.87
2022-07-28T04:46:13.202Z,18.94
2022-07-28T04:47:08.818Z,18.98
2022-07-28T04:48:08.815Z,19.03
2022-07-28T04:49:08.910Z,19.10
2022-07-28T04:50:08.846Z,19.16
2022-07-28T04:51:08.853Z,19.23
2022-07-28T04:53:08.869Z,19.26
2022-07-28T04:54:08.830Z,19.24
2022-07-28T04:55:08.851Z,19.23
2022-07-28T04:56:08.854Z,19.21
2022-07-28T04:57:10.309Z,19.23
2022-07-28T04:58:09.455Z,19.21
2022-07-28T04:59:09.331Z,19.18
2022-07-28T05:00:08.864Z,19.13
2022-07-28T05:01:08.955Z,19.16
2022-07-28T05:02:08.874Z,19.13
2022-07-28T05:03:08.861Z,19.16
2022-07-28T05:04:08.908Z,19.21
2022-07-28T05:05:08.937Z,19.28
2022-07-28T05:06:08.880Z,19.35
2022-07-28T05:07:12.695Z,19.42
2022-07-28T05:08:08.885Z,19.45
2022-07-28T05:09:08.879Z,19.51
2022-07-28T05:10:08.896Z,19.53
2022-07-28T05:11:08.891Z,19.54
2022-07-28T05:12:08.877Z,19.58
2022-07-28T05:13:08.890Z,19.62
2022-07-28T05:14:08.897Z,19.67
2022-07-28T05:15:08.922Z,19.75
2022-07-28T05:16:08.926Z,19.83
2022-07-28T05:17:09.760Z,19.88
2022-07-28T05:18:08.903Z,19.95
2022-07-28T05:19:08.914Z,19.97
2022-07-28T05:20:08.899Z,20.04
2022-07-28T05:21:08.899Z,20.11
2022-07-28T05:22:08.901Z,20.18
2022-07-28T05:23:08.917Z,20.22
2022-07-28T05:24:08.942Z,20.25
2022-07-28T05:25:08.916Z,20.28
2022-07-28T05:26:08.913Z,20.32
2022-07-28T05:27:08.951Z,20.40
2022-07-28T05:29:08.956Z,20.44
2022-07-28T05:30:08.961Z,20.48
2022-07-28T05:31:08.948Z,20.53
2022-07-28T05:32:16.859Z,20.57
2022-07-28T05:33:08.983Z,20.62
2022-07-28T05:34:08.939Z,20.63
2022-07-28T05:35:08.954Z,20.65
2022-07-28T05:36:09.524Z,20.67
2022-07-28T05:37:08.959Z,20.72
2022-07-28T05:38:10.951Z,20.78
2022-07-28T05:39:08.992Z,20.80
2022-07-28T05:41:08.963Z,20.83
2022-07-28T05:42:08.977Z,20.85
2022-07-28T05:43:08.965Z,20.90
2022-07-28T05:44:08.976Z,20.93
2022-07-28T05:45:16.543Z,20.95
2022-07-28T05:46:09.021Z,20.98
2022-07-28T05:47:08.958Z,21.00
2022-07-28T05:48:08.993Z,21.08
2022-07-28T05:49:09.094Z,21.16
2022-07-28T05:50:08.995Z,21.21
2022-07-28T05:51:08.992Z,21.31
2022-07-28T05:52:08.992Z,21.37
2022-07-28T05:53:08.996Z,21.44
2022-07-28T05:54:08.996Z,21.48
2022-07-28T05:55:09.001Z,21.54
2022-07-28T05:56:08.990Z,21.58
2022-07-28T05:57:09.004Z,21.61
2022-07-28T05:58:09.041Z,21.67
2022-07-28T05:59:09.002Z,21.72
2022-07-28T06:00:09.015Z,21.79
2022-07-28T06:01:09.106Z,21.84
2022-07-28T06:02:09.086Z,21.88
2022-07-28T06:03:09.017Z,21.89
2022-07-28T06:04:26.645Z,21.93
2022-07-28T06:05:09.031Z,22.02
2022-07-28T06:06:15.806Z,22.06
2022-07-28T06:07:09.038Z,22.10
2022-07-28T06:08:09.046Z,22.13
2022-07-28T06:09:09.034Z,22.24
2022-07-28T06:10:09.044Z,22.30
2022-07-28T06:11:09.041Z,22.36
2022-07-28T06:12:09.080Z,22.42
2022-07-28T06:13:09.760Z,22.50
2022-07-28T06:14:09.061Z,22.55
2022-07-28T06:15:09.064Z,22.60
2022-07-28T06:16:13.129Z,22.69
2022-07-28T06:17:09.055Z,22.74
2022-07-28T06:18:09.048Z,22.73
2022-07-28T06:19:09.067Z,22.71
2022-07-28T06:20:09.082Z,22.68
2022-07-28T06:21:09.063Z,22.71
2022-07-28T06:23:09.093Z,22.73
2022-07-28T06:24:09.081Z,22.77
2022-07-28T06:25:09.101Z,22.85
2022-07-28T06:26:09.104Z,22.90
2022-07-28T06:27:09.078Z,22.99
2022-07-28T06:28:09.102Z,23.06
2022-07-28T06:29:09.106Z,23.08
2022-07-28T06:31:09.179Z,23.01
2022-07-28T06:32:09.201Z,23.12
2022-07-28T06:33:11.738Z,23.19
2022-07-28T06:35:09.106Z,23.23
2022-07-28T06:36:09.129Z,23.19
2022-07-28T06:37:09.109Z,23.11
2022-07-28T06:38:09.094Z,23.07
2022-07-28T06:39:09.116Z,23.03
2022-07-28T06:40:09.138Z,23.02
2022-07-28T06:41:09.128Z,22.99
2022-07-28T06:42:09.130Z,23.07
2022-07-28T06:43:09.176Z,23.15
2022-07-28T06:44:09.165Z,23.19
2022-07-28T06:45:09.121Z,23.14
2022-07-28T06:46:09.124Z,23.21
2022-07-28T06:47:09.252Z,23.11
2022-07-28T06:48:09.152Z,23.14
2022-07-28T06:49:09.242Z,23.23
2022-07-28T06:50:26.496Z,23.26
2022-07-28T06:51:09.158Z,23.31
2022-07-28T06:52:09.161Z,23.39
2022-07-28T06:53:09.152Z,23.34
2022-07-28T06:54:11.367Z,23.07
2022-07-28T06:55:09.162Z,22.97
2022-07-28T06:56:13.727Z,23.04
2022-07-28T06:57:09.178Z,23.19
2022-07-28T06:58:09.143Z,23.36
2022-07-28T06:59:09.175Z,23.47
2022-07-28T07:00:09.159Z,23.23
2022-07-28T07:01:09.211Z,23.33
2022-07-28T07:02:09.172Z,23.43
2022-07-28T07:03:09.974Z,23.54
2022-07-28T07:04:09.265Z,23.63
2022-07-28T07:05:09.178Z,23.80
2022-07-28T07:06:09.168Z,24.03
2022-07-28T07:07:14.778Z,24.27
2022-07-28T07:08:09.193Z,24.52
2022-07-28T07:09:09.202Z,24.76
2022-07-28T07:10:09.184Z,24.99
2022-07-28T07:11:09.198Z,25.19
2022-07-28T07:12:09.215Z,25.38
2022-07-28T07:13:09.223Z,25.54
2022-07-28T07:14:09.228Z,25.69
2022-07-28T07:15:09.212Z,25.86
2022-07-28T07:16:09.308Z,26.02
2022-07-28T07:17:09.231Z,26.17
2022-07-28T07:18:09.229Z,26.30
2022-07-28T07:19:13.964Z,26.40
2022-07-28T07:20:09.238Z,26.44
2022-07-28T07:21:09.228Z,26.36
2022-07-28T07:22:09.220Z,26.12
2022-07-28T07:23:09.215Z,26.02
2022-07-28T07:25:09.247Z,26.05
2022-07-28T07:26:09.247Z,26.17
2022-07-28T07:27:10.171Z,26.32
2022-07-28T07:28:09.255Z,26.50
2022-07-28T07:29:09.225Z,26.46
2022-07-28T07:30:09.246Z,26.36
2022-07-28T07:31:09.357Z,26.39
2022-07-28T07:32:11.001Z,26.41
2022-07-28T07:33:10.400Z,26.43
2022-07-28T07:34:09.251Z,26.50
2022-07-28T07:35:09.287Z,26.58
2022-07-28T07:36:09.270Z,26.64
2022-07-28T07:37:09.258Z,26.73
2022-07-28T07:38:09.266Z,26.47
2022-07-28T07:39:09.268Z,26.52
2022-07-28T07:41:09.267Z,26.57
2022-07-28T07:42:09.286Z,26.59
2022-07-28T07:43:09.287Z,26.63
2022-07-28T07:44:09.275Z,26.69
2022-07-28T07:45:09.294Z,26.79
2022-07-28T07:46:09.349Z,26.91
2022-07-28T07:47:09.305Z,26.80
2022-07-28T07:48:09.307Z,26.65
2022-07-28T07:49:09.326Z,26.52
2022-07-28T07:50:09.319Z,26.37
2022-07-28T07:51:15.285Z,26.33
2022-07-28T07:52:09.318Z,26.43
2022-07-28T07:53:09.334Z,26.61
2022-07-28T07:54:09.908Z,26.74
2022-07-28T07:55:09.307Z,26.91
2022-07-28T07:56:09.333Z,27.05
2022-07-28T07:57:09.317Z,27.19
2022-07-28T07:58:09.336Z,27.26
2022-07-28T07:59:09.335Z,27.28
2022-07-28T08:00:28.920Z,27.40
2022-07-28T08:01:09.322Z,27.56
2022-07-28T08:02:09.452Z,27.72
2022-07-28T08:03:11.047Z,27.92
2022-07-28T08:04:10.419Z,28.10
2022-07-28T08:05:09.476Z,28.30
2022-07-28T08:06:09.353Z,28.48
2022-07-28T08:07:09.361Z,28.64
2022-07-28T08:08:09.360Z,28.78
2022-07-28T08:09:09.363Z,28.91
2022-07-28T08:10:09.361Z,29.03
2022-07-28T08:11:09.384Z,29.12
2022-07-28T08:12:09.424Z,29.18
2022-07-28T08:13:09.371Z,29.21
2022-07-28T08:14:09.340Z,29.03
2022-07-28T08:15:09.387Z,28.93
2022-07-28T08:16:09.409Z,28.80
2022-07-28T08:17:09.389Z,28.83
2022-07-28T08:18:09.387Z,28.81
2022-07-28T08:19:09.362Z,28.85
2022-07-28T08:20:09.381Z,28.99
2022-07-28T08:21:09.380Z,29.07
2022-07-28T08:22:09.392Z,29.21
2022-07-28T08:23:09.382Z,29.27
2022-07-28T08:24:09.397Z,29.33
2022-07-28T08:26:09.394Z,29.42
2022-07-28T08:27:09.404Z,29.37
2022-07-28T08:28:09.403Z,29.38
2022-07-28T08:29:09.405Z,29.46
2022-07-28T08:30:09.410Z,29.59
2022-07-28T08:31:09.439Z,29.75
2022-07-28T08:32:09.416Z,29.90
2022-07-28T08:33:09.399Z,29.99
2022-07-28T08:34:31.174Z,30.08
2022-07-28T08:35:30.497Z,30.10
2022-07-28T08:36:09.441Z,30.17
2022-07-28T08:37:09.403Z,30.30
2022-07-28T08:38:09.436Z,30.41
2022-07-28T08:39:09.456Z,30.55
2022-07-28T08:40:09.430Z,30.71
2022-07-28T08:41:10.634Z,30.85
2022-07-28T08:42:09.502Z,30.88
2022-07-28T08:43:09.427Z,30.82
2022-07-28T08:44:09.444Z,30.47
2022-07-28T08:45:09.452Z,30.13
2022-07-28T08:46:09.468Z,29.76
2022-07-28T08:47:09.461Z,29.70
2022-07-28T08:48:09.975Z,29.55
2022-07-28T08:49:09.658Z,29.72
2022-07-28T08:50:09.451Z,29.95
2022-07-28T08:51:09.493Z,30.07
2022-07-28T08:52:09.459Z,30.29
2022-07-28T08:53:09.464Z,30.28
2022-07-28T08:54:09.462Z,30.38
2022-07-28T08:55:09.463Z,30.48
2022-07-28T08:56:09.458Z,30.61
2022-07-28T08:57:09.489Z,30.52
2022-07-28T08:58:09.479Z,30.53
2022-07-28T08:59:10.378Z,30.49
2022-07-28T09:00:09.488Z,30.64
2022-07-28T09:01:09.493Z,30.81
2022-07-28T09:02:09.540Z,30.99
2022-07-28T09:03:09.553Z,31.02
2022-07-28T09:04:09.522Z,30.92
2022-07-28T09:05:09.518Z,30.85
2022-07-28T09:06:09.487Z,30.82
2022-07-28T09:07:09.514Z,30.70
2022-07-28T09:08:09.509Z,30.69
2022-07-28T09:09:09.516Z,30.51
2022-07-28T09:10:09.547Z,30.34
2022-07-28T09:11:09.504Z,30.26
2022-07-28T09:12:09.526Z,30.32
2022-07-28T09:13:09.542Z,30.40
2022-07-28T09:14:09.529Z,30.46
2022-07-28T09:15:09.526Z,30.64
2022-07-28T09:16:09.590Z,30.88
2022-07-28T09:17:09.533Z,31.04
2022-07-28T09:18:10.856Z,30.86
2022-07-28T09:19:09.571Z,30.61
2022-07-28T09:20:11.279Z,30.70
2022-07-28T09:21:09.542Z,30.65
2022-07-28T09:23:41.937Z,30.77
2022-07-28T09:24:09.565Z,30.96
2022-07-28T09:25:09.576Z,31.18
2022-07-28T09:26:11.446Z,31.37
2022-07-28T09:27:09.585Z,31.55
2022-07-28T09:28:09.594Z,31.74
2022-07-28T09:29:09.593Z,31.94
2022-07-28T09:30:09.574Z,32.13
2022-07-28T09:31:09.679Z,32.32
2022-07-28T09:32:09.587Z,32.50
2022-07-28T09:33:09.573Z,32.61
2022-07-28T09:34:09.586Z,32.70
2022-07-28T09:35:09.581Z,32.81
2022-07-28T09:36:09.623Z,32.87
2022-07-28T09:37:09.594Z,32.97
2022-07-28T09:38:09.585Z,33.02
2022-07-28T09:39:09.599Z,32.99
2022-07-28T09:40:10.613Z,33.03
2022-07-28T09:41:09.626Z,32.96
2022-07-28T09:42:09.612Z,32.99
2022-07-28T09:43:09.607Z,33.05
2022-07-28T09:44:09.598Z,33.09
2022-07-28T09:45:23.550Z,32.86
2022-07-28T09:46:09.790Z,32.72
2022-07-28T09:47:09.850Z,32.69
2022-07-28T09:48:09.812Z,32.75
2022-07-28T09:49:09.832Z,32.71
2022-07-28T09:50:09.685Z,32.77
2022-07-28T09:51:09.616Z,32.87
2022-07-28T09:52:09.615Z,32.98
2022-07-28T09:53:09.632Z,33.06
2022-07-28T09:54:09.639Z,33.11
2022-07-28T09:56:09.647Z,33.08
2022-07-28T09:57:09.643Z,33.02
2022-07-28T09:58:09.640Z,32.98
2022-07-28T09:59:09.685Z,32.89
2022-07-28T10:00:09.696Z,32.85
2022-07-28T10:01:09.818Z,32.81
2022-07-28T10:02:09.696Z,32.71
2022-07-28T10:03:09.707Z,32.51
2022-07-28T10:04:09.639Z,32.20
2022-07-28T10:05:09.644Z,32.01
2022-07-28T10:06:09.664Z,31.64
2022-07-28T10:07:09.699Z,31.36
2022-07-28T10:08:09.684Z,31.26
2022-07-28T10:09:09.683Z,31.36
2022-07-28T10:10:09.661Z,31.37
2022-07-28T10:11:09.721Z,31.46
2022-07-28T10:12:09.691Z,31.56
2022-07-28T10:13:09.712Z,31.72
2022-07-28T10:14:09.696Z,31.87
2022-07-28T10:15:09.721Z,32.01
2022-07-28T10:16:09.724Z,32.10
2022-07-28T10:17:09.698Z,32.24
2022-07-28T10:18:09.696Z,32.19
2022-07-28T10:19:09.710Z,32.16
2022-07-28T10:20:09.702Z,32.20
2022-07-28T10:21:09.706Z,32.02
2022-07-28T10:22:09.729Z,31.96
2022-07-28T10:23:09.719Z,32.03
2022-07-28T10:24:09.722Z,32.13
2022-07-28T10:25:09.717Z,32.10
2022-07-28T10:26:11.029Z,31.90
2022-07-28T10:27:09.712Z,31.82
2022-07-28T10:28:09.732Z,31.67
2022-07-28T10:29:09.739Z,31.48
2022-07-28T10:30:09.740Z,31.21
2022-07-28T10:31:09.824Z,31.15
2022-07-28T10:32:11.293Z,31.12
2022-07-28T10:33:09.734Z,31.04
2022-07-28T10:34:13.048Z,31.01
2022-07-28T10:35:09.759Z,30.76
2022-07-28T10:36:09.745Z,30.59
2022-07-28T10:37:09.759Z,30.28
2022-07-28T10:38:09.764Z,30.17
2022-07-28T10:39:09.758Z,30.00
2022-07-28T10:40:10.755Z,29.93
2022-07-28T10:41:09.768Z,29.95
2022-07-28T10:42:09.742Z,29.94
2022-07-28T10:43:09.745Z,29.99
2022-07-28T10:44:09.766Z,30.20
2022-07-28T10:45:09.780Z,30.44
2022-07-28T10:46:14.164Z,30.62
2022-07-28T10:47:09.881Z,30.69
2022-07-28T10:48:09.770Z,30.73
2022-07-28T10:49:09.972Z,30.82
2022-07-28T10:50:09.778Z,31.00
2022-07-28T10:51:09.794Z,31.21
2022-07-28T10:52:30.406Z,31.27
2022-07-28T10:53:09.793Z,31.39
2022-07-28T10:54:09.792Z,31.41
2022-07-28T10:55:09.776Z,31.54
2022-07-28T10:56:09.803Z,31.65
2022-07-28T10:57:09.795Z,31.69
2022-07-28T10:58:11.986Z,31.75
2022-07-28T10:59:09.801Z,31.86
2022-07-28T11:00:13.385Z,31.92
2022-07-28T11:01:17.053Z,32.01
2022-07-28T11:02:09.897Z,32.12
2022-07-28T11:03:13.540Z,32.23
2022-07-28T11:04:09.820Z,32.26
2022-07-28T11:05:09.842Z,32.34
2022-07-28T11:06:09.819Z,32.47
2022-07-28T11:07:09.826Z,32.59
2022-07-28T11:08:09.835Z,32.64
2022-07-28T11:09:11.520Z,32.65
2022-07-28T11:10:09.848Z,32.60
2022-07-28T11:11:09.922Z,32.59
2022-07-28T11:12:10.131Z,32.58
2022-07-28T11:13:14.268Z,32.59
2022-07-28T11:14:09.895Z,32.63
2022-07-28T11:15:18.859Z,32.53
2022-07-28T11:16:09.852Z,32.51
2022-07-28T11:17:10.247Z,32.52
2022-07-28T11:18:09.882Z,32.44
2022-07-28T11:19:36.440Z,32.25
2022-07-28T11:20:27.141Z,31.88
2022-07-28T11:21:09.866Z,31.72
2022-07-28T11:22:09.854Z,31.75
2022-07-28T11:23:09.879Z,31.86
2022-07-28T11:24:09.865Z,32.00
2022-07-28T11:25:20.441Z,32.13
2022-07-28T11:26:09.891Z,32.23
2022-07-28T11:27:09.880Z,32.33
2022-07-28T11:28:09.894Z,32.41
2022-07-28T11:29:09.899Z,32.46
2022-07-28T11:30:09.885Z,32.44
2022-07-28T11:31:09.988Z,32.37
2022-07-28T11:32:09.915Z,32.32
2022-07-28T11:33:09.906Z,32.28
2022-07-28T11:35:09.902Z,32.23
2022-07-28T11:36:09.918Z,32.04
2022-07-28T11:37:09.907Z,31.88
2022-07-28T11:39:09.935Z,31.82
2022-07-28T11:40:09.926Z,31.89
2022-07-28T11:41:09.938Z,31.95
2022-07-28T11:42:09.946Z,32.04
2022-07-28T11:43:09.927Z,32.01
2022-07-28T11:44:09.954Z,32.04
2022-07-28T11:45:09.934Z,32.11
2022-07-28T11:46:12.131Z,32.21
2022-07-28T11:47:09.945Z,32.34
2022-07-28T11:48:09.942Z,32.47
2022-07-28T11:49:14.856Z,32.56
2022-07-28T11:50:09.941Z,32.57
2022-07-28T11:51:09.939Z,32.62
2022-07-28T11:52:09.947Z,32.72
2022-07-28T11:53:09.944Z,32.77
2022-07-28T11:54:09.958Z,32.74
2022-07-28T11:55:09.965Z,32.70
2022-07-28T11:57:09.984Z,32.66
2022-07-28T11:58:09.952Z,32.61
2022-07-28T11:59:09.956Z,32.54
2022-07-28T12:00:10.034Z,32.46
2022-07-28T12:01:13.418Z,32.44
2022-07-28T12:03:09.962Z,32.41
2022-07-28T12:04:10.357Z,32.39
2022-07-28T12:05:10.088Z,32.40
2022-07-28T12:06:10.002Z,32.39
2022-07-28T12:08:09.995Z,32.33
2022-07-28T12:09:10.048Z,32.31
2022-07-28T12:11:09.998Z,32.27
2022-07-28T12:12:10.018Z,32.31
2022-07-28T12:13:10.015Z,32.34
2022-07-28T12:14:10.005Z,32.38
2022-07-28T12:15:10.002Z,32.39
2022-07-28T12:16:10.074Z,32.32
2022-07-28T12:17:10.095Z,32.31
2022-07-28T12:18:10.028Z,32.28
2022-07-28T12:19:10.286Z,32.30
2022-07-28T12:20:11.454Z,32.29
2022-07-28T12:21:10.041Z,32.33
2022-07-28T12:22:10.038Z,32.35
2022-07-28T12:23:11.960Z,32.26
2022-07-28T12:24:10.030Z,32.24
2022-07-28T12:25:13.593Z,32.30
2022-07-28T12:26:10.254Z,32.37
2022-07-28T12:27:10.053Z,32.42
2022-07-28T12:28:10.046Z,32.29
2022-07-28T12:29:10.946Z,32.26
2022-07-28T12:30:10.138Z,32.24
2022-07-28T12:31:10.053Z,32.19
2022-07-28T12:33:10.081Z,32.21
2022-07-28T12:35:10.076Z,32.22
2022-07-28T12:36:10.112Z,32.04
2022-07-28T12:37:10.239Z,32.01
2022-07-28T12:38:10.071Z,31.91
2022-07-28T12:39:13.083Z,31.74
2022-07-28T12:40:10.113Z,31.65
2022-07-28T12:41:10.072Z,31.57
2022-07-28T12:42:10.099Z,31.58
2022-07-28T12:43:10.090Z,31.63
2022-07-28T12:44:10.113Z,31.73
2022-07-28T12:45:10.101Z,31.82
2022-07-28T12:46:10.121Z,31.95
2022-07-28T12:47:10.094Z,32.04
2022-07-28T12:48:10.107Z,32.14
2022-07-28T12:49:10.210Z,32.24
2022-07-28T12:50:10.192Z,32.29
2022-07-28T12:51:11.130Z,32.36
2022-07-28T12:52:10.130Z,32.44
2022-07-28T12:53:10.113Z,32.46
2022-07-28T12:54:10.103Z,32.43
2022-07-28T12:55:10.138Z,32.23
2022-07-28T12:56:10.151Z,32.08
2022-07-28T12:57:10.145Z,32.02
2022-07-28T12:58:10.139Z,32.01
2022-07-28T12:59:10.131Z,32.07
2022-07-28T13:00:12.208Z,31.92
2022-07-28T13:01:10.229Z,31.76
2022-07-28T13:02:10.159Z,31.66
2022-07-28T13:03:10.140Z,31.59
2022-07-28T13:04:10.135Z,31.43
2022-07-28T13:05:10.172Z,31.35
2022-07-28T13:06:10.154Z,31.37
2022-07-28T13:07:10.168Z,31.42
2022-07-28T13:08:10.159Z,31.32
2022-07-28T13:09:14.954Z,31.30
2022-07-28T13:10:12.820Z,31.32
2022-07-28T13:11:22.526Z,31.35
2022-07-28T13:12:10.156Z,31.38
2022-07-28T13:13:10.158Z,31.31
2022-07-28T13:14:10.169Z,31.24
2022-07-28T13:15:10.187Z,31.12
2022-07-28T13:16:10.244Z,31.20
2022-07-28T13:17:10.158Z,31.19
2022-07-28T13:18:10.177Z,31.25
2022-07-28T13:19:10.234Z,31.28
2022-07-28T13:20:10.193Z,31.35
2022-07-28T13:21:10.211Z,31.45
2022-07-28T13:22:10.179Z,31.53
2022-07-28T13:23:10.189Z,31.58
2022-07-28T13:24:10.199Z,31.44
2022-07-28T13:25:10.200Z,31.39
2022-07-28T13:26:10.194Z,31.37
2022-07-28T13:27:10.202Z,31.33
2022-07-28T13:28:10.225Z,31.28
2022-07-28T13:29:12.797Z,31.17
2022-07-28T13:30:10.212Z,31.11
2022-07-28T13:32:10.381Z,31.19
2022-07-28T13:33:13.770Z,31.31
2022-07-28T13:34:10.233Z,31.44
2022-07-28T13:35:15.218Z,31.53
2022-07-28T13:36:10.229Z,31.62
2022-07-28T13:37:12.489Z,31.64
2022-07-28T13:38:10.235Z,31.72
2022-07-28T13:39:10.255Z,31.77
2022-07-28T13:40:10.235Z,31.85
2022-07-28T13:41:10.248Z,31.91
2022-07-28T13:42:10.393Z,31.95
2022-07-28T13:43:11.206Z,32.00